createdAt,value
2022-12-12T00:02:07.971Z,101199.81
2022-12-12T00:04:37.104Z,101202.38
2022-12-12T00:07:07.919Z,101197.44
2022-12-12T00:09:37.128Z,101204.25
2022-12-12T00:12:05.596Z,101205.44
2022-12-12T00:14:34.370Z,101195.09
2022-12-12T00:17:02.980Z,101202.75
2022-12-12T00:19:31.553Z,101203.03
2022-12-12T00:22:00.662Z,101203.00
2022-12-12T00:24:35.165Z,101205.28
2022-12-12T00:27:04.661Z,101203.44
2022-12-12T00:29:33.353Z,101202.09
2022-12-12T00:32:02.183Z,101208.34
2022-12-12T00:34:33.037Z,101206.41
2022-12-12T00:37:02.785Z,101204.97
2022-12-12T00:39:33.122Z,101202.47
2022-12-12T00:42:01.910Z,101205.28
2022-12-12T00:44:32.002Z,101209.00
2022-12-12T00:47:04.275Z,101213.16
2022-12-12T00:49:33.353Z,101208.00
2022-12-12T00:52:02.701Z,101212.56
2022-12-12T00:54:33.272Z,101213.91
2022-12-12T00:57:02.427Z,101216.34
2022-12-12T00:59:33.401Z,101212.97
2022-12-12T01:02:02.517Z,101217.38
2022-12-12T01:04:31.229Z,101226.47
2022-12-12T01:07:00.415Z,101215.97
2022-12-12T01:09:30.371Z,101216.50
2022-12-12T01:12:01.629Z,101209.38
2022-12-12T01:14:31.074Z,101220.81
2022-12-12T01:17:00.632Z,101228.41
2022-12-12T01:19:30.202Z,101223.81
2022-12-12T01:21:59.659Z,101222.03
2022-12-12T01:24:28.288Z,101227.50
2022-12-12T01:26:59.060Z,101232.41
2022-12-12T01:29:29.305Z,101224.69
2022-12-12T01:31:58.734Z,101228.59
2022-12-12T01:34:29.835Z,101224.63
2022-12-12T01:36:58.482Z,101230.44
2022-12-12T01:39:27.793Z,101226.19
2022-12-12T01:41:57.983Z,101238.31
2022-12-12T01:44:49.429Z,101235.19
2022-12-12T01:47:23.215Z,101240.53
2022-12-12T01:49:58.578Z,101234.81
2022-12-12T01:52:32.078Z,101249.91
2022-12-12T01:55:05.963Z,101239.78
2022-12-12T01:57:44.721Z,101254.88
2022-12-12T02:00:30.381Z,101253.50
2022-12-12T02:02:59.874Z,101248.06
2022-12-12T02:05:35.301Z,101252.91
2022-12-12T02:08:08.432Z,101259.63
2022-12-12T02:10:38.750Z,101257.03
2022-12-12T02:13:12.008Z,101251.03
2022-12-12T02:15:52.907Z,101266.97
2022-12-12T02:18:30.088Z,101267.81
2022-12-12T02:21:12.181Z,101262.09
2022-12-12T02:24:49.273Z,101261.16
2022-12-12T02:28:21.673Z,101253.22
2022-12-12T02:31:14.480Z,101263.88
2022-12-12T02:33:56.702Z,101260.31
2022-12-12T02:36:38.568Z,101256.59
2022-12-12T02:39:15.777Z,101259.72
2022-12-12T02:41:54.363Z,101263.59
2022-12-12T02:44:32.807Z,101259.84
2022-12-12T02:47:11.532Z,101259.63
2022-12-12T02:49:47.976Z,101262.59
2022-12-12T02:52:18.265Z,101271.28
2022-12-12T02:54:48.882Z,101271.50
2022-12-12T02:57:21.148Z,101269.63
2022-12-12T02:59:59.268Z,101272.91
2022-12-12T03:03:44.993Z,101272.41
2022-12-12T03:07:02.122Z,101270.59
2022-12-12T03:09:49.149Z,101273.06
2022-12-12T03:12:29.657Z,101273.91
2022-12-12T03:15:07.553Z,101272.41
2022-12-12T03:17:47.804Z,101270.91
2022-12-12T03:20:26.150Z,101270.47
2022-12-12T03:23:02.713Z,101270.97
2022-12-12T03:25:38.800Z,101266.28
2022-12-12T03:28:14.386Z,101275.03
2022-12-12T03:30:49.467Z,101269.63
2022-12-12T03:33:29.414Z,101275.13
2022-12-12T03:36:10.292Z,101277.47
2022-12-12T03:38:47.474Z,101277.06
2022-12-12T03:41:21.187Z,101272.25
2022-12-12T03:43:58.412Z,101278.19
2022-12-12T03:46:34.092Z,101285.28
2022-12-12T03:49:12.443Z,101280.63
2022-12-12T03:51:54.042Z,101276.50
2022-12-12T03:54:28.438Z,101276.91
2022-12-12T03:57:02.456Z,101270.81
2022-12-12T03:59:36.153Z,101278.06
2022-12-12T04:02:20.103Z,101274.97
2022-12-12T04:05:02.168Z,101270.53
2022-12-12T04:07:36.585Z,101277.34
2022-12-12T04:10:24.598Z,101275.88
2022-12-12T04:13:07.549Z,101275.22
2022-12-12T04:15:59.695Z,101275.78
2022-12-12T04:18:42.604Z,101286.25
2022-12-12T04:24:37.262Z,101288.34
2022-12-12T04:27:11.423Z,101284.75
2022-12-12T04:29:50.572Z,101291.72
2022-12-12T04:32:25.754Z,101291.19
2022-12-12T04:34:56.868Z,101287.63
2022-12-12T04:37:31.196Z,101296.19
2022-12-12T04:40:06.964Z,101294.09
2022-12-12T04:42:48.529Z,101291.09
2022-12-12T04:45:21.489Z,101296.81
2022-12-12T04:47:54.121Z,101293.00
2022-12-12T04:50:29.201Z,101288.41
2022-12-12T04:53:02.379Z,101298.56
2022-12-12T04:55:38.129Z,101302.41
2022-12-12T04:58:07.994Z,101307.59
2022-12-12T05:00:48.013Z,101304.38
2022-12-12T05:03:26.853Z,101297.41
2022-12-12T05:06:02.419Z,101300.19
2022-12-12T05:08:35.580Z,101292.03
2022-12-12T05:11:08.231Z,101290.34
2022-12-12T05:13:40.334Z,101290.34
2022-12-12T05:16:20.570Z,101294.81
2022-12-12T05:18:51.551Z,101294.84
2022-12-12T05:21:20.586Z,101297.91
2022-12-12T05:23:49.098Z,101295.09
2022-12-12T05:26:27.991Z,101292.84
2022-12-12T05:29:01.125Z,101294.75
2022-12-12T05:31:34.199Z,101298.72
2022-12-12T05:34:03.016Z,101292.00
2022-12-12T05:36:32.900Z,101295.88
2022-12-12T05:39:01.633Z,101308.31
2022-12-12T05:41:32.270Z,101303.13
2022-12-12T05:44:01.241Z,101303.94
2022-12-12T05:46:30.896Z,101307.00
2022-12-12T05:49:03.717Z,101298.28
2022-12-12T05:51:33.043Z,101303.13
2022-12-12T05:54:02.010Z,101321.06
2022-12-12T05:56:33.251Z,101323.19
2022-12-12T05:59:03.279Z,101321.94
2022-12-12T06:01:32.346Z,101327.28
2022-12-12T06:04:03.499Z,101317.06
2022-12-12T06:06:32.172Z,101320.03
2022-12-12T06:09:01.790Z,101328.75
2022-12-12T06:11:32.330Z,101322.97
2022-12-12T06:14:01.762Z,101320.06
2022-12-12T06:16:30.406Z,101333.50
2022-12-12T06:18:59.518Z,101331.44
2022-12-12T06:21:28.513Z,101331.88
2022-12-12T06:23:58.434Z,101330.72
2022-12-12T06:26:28.612Z,101332.41
2022-12-12T06:29:00.605Z,101342.31
2022-12-12T06:31:29.398Z,101331.44
2022-12-12T06:33:59.236Z,101334.38
2022-12-12T06:36:28.462Z,101331.09
2022-12-12T06:39:03.314Z,101343.06
2022-12-12T06:41:34.881Z,101341.66
2022-12-12T06:44:05.316Z,101345.47
2022-12-12T06:46:34.141Z,101341.88
2022-12-12T06:49:07.060Z,101332.38
2022-12-12T06:51:48.884Z,101335.66
2022-12-12T06:54:20.009Z,101329.53
2022-12-12T06:56:53.883Z,101347.97
2022-12-12T06:59:24.792Z,101344.00
2022-12-12T07:01:56.442Z,101344.88
2022-12-12T07:04:27.431Z,101354.06
2022-12-12T07:06:58.558Z,101341.25
2022-12-12T07:09:30.747Z,101342.41
2022-12-12T07:11:59.771Z,101354.66
2022-12-12T07:14:30.732Z,101352.06
2022-12-12T07:17:00.821Z,101357.28
2022-12-12T07:19:37.239Z,101356.41
2022-12-12T07:22:10.490Z,101359.03
2022-12-12T07:24:39.990Z,101361.91
2022-12-12T07:27:09.487Z,101360.19
2022-12-12T07:29:40.935Z,101368.25
2022-12-12T07:32:09.906Z,101370.16
2022-12-12T07:34:38.972Z,101380.56
2022-12-12T07:37:08.986Z,101380.56
2022-12-12T07:39:39.148Z,101378.81
2022-12-12T07:42:09.639Z,101375.31
2022-12-12T07:44:40.994Z,101384.09
2022-12-12T07:47:11.513Z,101389.44
2022-12-12T07:49:40.428Z,101387.63
2022-12-12T07:52:09.223Z,101394.72
2022-12-12T07:54:39.035Z,101392.13
2022-12-12T07:57:08.883Z,101393.88
2022-12-12T07:59:37.931Z,101397.41
2022-12-12T08:02:11.722Z,101405.38
2022-12-12T08:04:40.407Z,101408.00
2022-12-12T08:09:52.918Z,101421.34
2022-12-12T08:12:21.944Z,101417.97
2022-12-12T08:14:52.249Z,101429.38
2022-12-12T08:17:25.109Z,101425.78
2022-12-12T08:19:55.577Z,101426.75
2022-12-12T08:22:24.541Z,101419.63
2022-12-12T08:24:55.033Z,101431.91
2022-12-12T08:27:23.877Z,101427.56
2022-12-12T08:29:59.488Z,101430.34
2022-12-12T08:32:30.240Z,101426.09
2022-12-12T08:34:59.380Z,101425.09
2022-12-12T08:37:28.420Z,101429.53
2022-12-12T08:39:58.030Z,101433.84
2022-12-12T08:42:26.509Z,101436.44
2022-12-12T08:44:55.804Z,101437.09
2022-12-12T08:47:25.000Z,101434.56
2022-12-12T08:49:56.083Z,101438.94
2022-12-12T08:52:24.875Z,101431.94
2022-12-12T08:54:54.228Z,101432.00
2022-12-12T08:57:26.016Z,101436.91
2022-12-12T08:59:54.973Z,101433.78
2022-12-12T09:02:26.622Z,101431.06
2022-12-12T09:04:57.163Z,101437.09
2022-12-12T09:07:28.300Z,101429.88
2022-12-12T09:09:56.821Z,101442.25
2022-12-12T09:12:26.699Z,101436.22
2022-12-12T09:14:56.007Z,101438.69
2022-12-12T09:17:25.372Z,101429.91
2022-12-12T09:19:57.963Z,101429.00
2022-12-12T09:22:28.233Z,101431.38
2022-12-12T09:27:41.596Z,101422.38
2022-12-12T09:30:12.342Z,101433.06
2022-12-12T09:32:42.043Z,101427.44
2022-12-12T09:35:13.763Z,101431.97
2022-12-12T09:37:43.515Z,101430.81
2022-12-12T09:40:21.277Z,101435.66
2022-12-12T09:42:52.703Z,101429.63
2022-12-12T09:45:22.593Z,101427.44
2022-12-12T09:47:56.842Z,101425.03
2022-12-12T09:50:32.564Z,101422.66
2022-12-12T09:53:06.646Z,101424.84
2022-12-12T09:55:41.862Z,101424.63
2022-12-12T09:58:21.927Z,101412.50
2022-12-12T10:01:01.044Z,101424.16
2022-12-12T10:03:51.940Z,101414.97
2022-12-12T10:06:39.131Z,101405.59
2022-12-12T10:09:34.021Z,101412.81
2022-12-12T10:12:09.196Z,101416.88
2022-12-12T10:14:44.095Z,101414.72
2022-12-12T10:17:20.116Z,101409.47
2022-12-12T10:19:53.779Z,101411.66
2022-12-12T10:22:39.040Z,101413.94
2022-12-12T10:25:26.006Z,101406.16
2022-12-12T10:27:57.627Z,101397.22
2022-12-12T10:30:26.418Z,101400.41
2022-12-12T10:33:21.578Z,101403.59
2022-12-12T10:36:00.608Z,101398.78
2022-12-12T10:41:45.735Z,101394.19
2022-12-12T10:44:47.033Z,101400.13
2022-12-12T10:47:22.287Z,101393.09
2022-12-12T10:49:52.679Z,101391.09
2022-12-12T10:52:24.238Z,101387.72
2022-12-12T10:54:59.613Z,101387.28
2022-12-12T10:57:39.775Z,101382.00
2022-12-12T11:00:28.160Z,101377.97
2022-12-12T11:03:00.497Z,101390.59
2022-12-12T11:05:35.784Z,101379.47
2022-12-12T11:11:18.652Z,101384.84
2022-12-12T11:13:55.253Z,101382.97
2022-12-12T11:16:28.716Z,101381.75
2022-12-12T11:19:06.687Z,101381.34
2022-12-12T11:21:39.608Z,101370.41
2022-12-12T11:24:30.689Z,101369.41
2022-12-12T11:27:02.641Z,101374.88
2022-12-12T11:29:45.200Z,101375.19
2022-12-12T11:32:16.095Z,101381.44
2022-12-12T11:34:50.960Z,101371.69
2022-12-12T11:37:22.095Z,101373.56
2022-12-12T11:39:55.266Z,101361.19
2022-12-12T11:42:29.738Z,101362.31
2022-12-12T11:45:21.614Z,101350.44
2022-12-12T11:47:55.629Z,101359.53
2022-12-12T11:50:27.800Z,101361.47
2022-12-12T11:52:59.218Z,101354.31
2022-12-12T11:55:39.542Z,101349.06
2022-12-12T11:58:19.093Z,101355.47
2022-12-12T12:01:01.941Z,101348.69
2022-12-12T12:04:08.576Z,101354.28
2022-12-12T12:06:46.720Z,101353.13
2022-12-12T12:09:28.620Z,101362.41
2022-12-12T12:12:08.495Z,101355.56
2022-12-12T12:15:06.236Z,101357.50
2022-12-12T12:17:57.909Z,101359.31
2022-12-12T12:20:40.162Z,101353.72
2022-12-12T12:23:24.017Z,101351.09
2022-12-12T12:26:03.758Z,101354.03
2022-12-12T12:29:17.798Z,101351.38
2022-12-12T12:31:58.265Z,101348.03
2022-12-12T12:34:48.848Z,101345.22
2022-12-12T12:37:35.237Z,101347.50
2022-12-12T12:40:38.455Z,101353.75
2022-12-12T12:43:37.362Z,101352.59
2022-12-12T12:46:16.376Z,101350.75
2022-12-12T12:48:54.020Z,101348.03
2022-12-12T12:51:30.441Z,101341.59
2022-12-12T12:54:05.523Z,101345.88
2022-12-12T12:56:43.407Z,101346.53
2022-12-12T12:59:19.962Z,101351.56
2022-12-12T13:01:52.295Z,101354.41
2022-12-12T13:04:27.185Z,101346.28
2022-12-12T13:07:05.020Z,101351.19
2022-12-12T13:09:43.051Z,101341.53
2022-12-12T13:12:21.469Z,101341.66
2022-12-12T13:14:59.855Z,101348.91
2022-12-12T13:17:44.728Z,101350.03
2022-12-12T13:20:19.473Z,101344.50
2022-12-12T13:23:22.463Z,101338.41
2022-12-12T13:26:00.844Z,101334.16
2022-12-12T13:28:37.422Z,101332.06
2022-12-12T13:31:40.127Z,101336.00
2022-12-12T13:34:14.891Z,101326.28
2022-12-12T13:36:49.265Z,101334.91
2022-12-12T13:39:31.204Z,101336.75
2022-12-12T13:42:03.538Z,101334.19
2022-12-12T13:44:41.882Z,101340.84
2022-12-12T13:47:55.389Z,101345.34
2022-12-12T13:50:26.318Z,101345.28
2022-12-12T13:53:21.979Z,101347.81
2022-12-12T13:56:35.650Z,101348.63
2022-12-12T13:59:07.630Z,101352.69
2022-12-12T14:01:41.219Z,101348.09
2022-12-12T14:04:28.782Z,101345.25
2022-12-12T14:07:05.640Z,101348.28
2022-12-12T14:09:48.963Z,101344.63
2022-12-12T14:12:31.768Z,101355.94
2022-12-12T14:15:07.367Z,101344.38
2022-12-12T14:17:43.039Z,101350.81
2022-12-12T14:20:32.856Z,101354.63
2022-12-12T14:23:27.341Z,101348.56
2022-12-12T14:26:00.315Z,101348.88
2022-12-12T14:28:32.781Z,101352.47
2022-12-12T14:31:15.762Z,101346.75
2022-12-12T14:34:31.413Z,101336.47
2022-12-12T14:37:40.843Z,101350.56
2022-12-12T14:40:21.786Z,101363.00
2022-12-12T14:43:19.478Z,101350.53
2022-12-12T14:45:59.289Z,101348.63
2022-12-12T14:48:32.803Z,101350.75
2022-12-12T14:51:09.358Z,101355.31
2022-12-12T14:53:49.814Z,101346.31
2022-12-12T14:56:22.733Z,101358.56
2022-12-12T14:59:03.003Z,101359.50
2022-12-12T15:01:37.495Z,101364.75
2022-12-12T15:04:09.899Z,101370.34
2022-12-12T15:06:41.123Z,101375.38
2022-12-12T15:09:31.510Z,101376.94
2022-12-12T15:12:15.369Z,101383.22
2022-12-12T15:14:58.094Z,101382.00
2022-12-12T15:17:34.388Z,101378.44
2022-12-12T15:20:10.208Z,101393.56
2022-12-12T15:22:52.513Z,101390.91
2022-12-12T15:25:25.978Z,101394.66
2022-12-12T15:27:57.532Z,101400.97
2022-12-12T15:30:36.978Z,101393.34
2022-12-12T15:33:09.641Z,101400.06
2022-12-12T15:35:38.432Z,101402.03
2022-12-12T15:38:17.777Z,101398.53
2022-12-12T15:40:52.590Z,101400.28
2022-12-12T15:43:26.355Z,101400.34
2022-12-12T15:45:57.544Z,101393.38
2022-12-12T15:48:28.619Z,101396.06
2022-12-12T15:51:02.009Z,101400.59
2022-12-12T15:53:39.186Z,101402.53
2022-12-12T15:56:11.565Z,101409.59
2022-12-12T15:58:43.293Z,101411.38
2022-12-12T16:01:22.556Z,101409.78
2022-12-12T16:04:00.741Z,101413.34
2022-12-12T16:06:33.424Z,101416.31
2022-12-12T16:09:09.056Z,101418.81
2022-12-12T16:11:47.220Z,101407.44
2022-12-12T16:14:39.697Z,101412.69
2022-12-12T16:17:13.752Z,101408.41
2022-12-12T16:20:03.254Z,101405.75
2022-12-12T16:22:39.914Z,101409.34
2022-12-12T16:25:19.834Z,101408.59
2022-12-12T16:27:54.442Z,101401.50
2022-12-12T16:30:26.347Z,101405.03
2022-12-12T16:32:57.236Z,101400.72
2022-12-12T16:35:29.751Z,101406.00
2022-12-12T16:37:58.401Z,101409.56
2022-12-12T16:40:28.361Z,101408.75
2022-12-12T16:43:11.265Z,101404.41
2022-12-12T16:45:45.883Z,101398.28
2022-12-12T16:48:20.927Z,101393.06
2022-12-12T16:50:54.484Z,101394.81
2022-12-12T16:53:23.672Z,101395.75
2022-12-12T16:55:55.984Z,101403.72
2022-12-12T16:58:26.898Z,101402.81
2022-12-12T17:00:58.765Z,101402.03
2022-12-12T17:03:27.929Z,101408.19
2022-12-12T17:06:00.528Z,101412.56
2022-12-12T17:08:35.348Z,101408.22
2022-12-12T17:11:13.036Z,101409.13
2022-12-12T17:13:49.715Z,101406.53
2022-12-12T17:16:27.385Z,101407.44
2022-12-12T17:21:51.197Z,101405.72
2022-12-12T17:24:20.802Z,101413.63
2022-12-12T17:26:50.612Z,101414.53
2022-12-12T17:29:22.479Z,101418.06
2022-12-12T17:31:53.630Z,101417.16
2022-12-12T17:34:22.328Z,101411.06
2022-12-12T17:36:57.465Z,101397.91
2022-12-12T17:39:26.827Z,101404.94
2022-12-12T17:41:56.057Z,101403.19
2022-12-12T17:44:27.166Z,101397.94
2022-12-12T17:46:56.503Z,101402.34
2022-12-12T17:49:27.447Z,101397.09
2022-12-12T17:52:42.926Z,101404.19
2022-12-12T17:55:53.975Z,101406.75
2022-12-12T17:58:06.586Z,101403.25
2022-12-12T18:00:36.657Z,101403.25
2022-12-12T18:03:08.318Z,101400.59
2022-12-12T18:05:38.013Z,101405.00
2022-12-12T18:08:09.242Z,101405.03
2022-12-12T18:10:39.158Z,101411.16
2022-12-12T18:13:07.648Z,101405.91
2022-12-12T18:15:37.418Z,101408.53
2022-12-12T18:18:06.698Z,101402.34
2022-12-12T18:20:36.633Z,101394.50
2022-12-12T18:23:10.018Z,101399.75
2022-12-12T18:25:39.309Z,101394.50
2022-12-12T18:28:10.655Z,101393.63
2022-12-12T18:30:41.082Z,101394.50
2022-12-12T18:36:05.798Z,101395.41
2022-12-12T18:38:40.688Z,101403.31
2022-12-12T18:41:15.904Z,101403.34
2022-12-12T18:43:46.307Z,101406.84
2022-12-12T18:46:17.414Z,101401.59
2022-12-12T18:48:50.245Z,101399.88
2022-12-12T18:51:22.480Z,101400.75
2022-12-12T18:53:54.291Z,101402.53
2022-12-12T18:56:26.943Z,101410.44
2022-12-12T18:58:56.894Z,101406.06
2022-12-12T19:01:28.482Z,101411.34
2022-12-12T19:03:59.857Z,101410.44
2022-12-12T19:06:34.799Z,101408.69
2022-12-12T19:09:08.167Z,101413.97
2022-12-12T19:11:38.932Z,101419.25
2022-12-12T19:14:10.755Z,101420.13
2022-12-12T19:16:39.354Z,101417.47
2022-12-12T19:19:10.107Z,101413.13
2022-12-12T19:21:39.497Z,101422.75
2022-12-12T19:24:12.438Z,101417.50
2022-12-12T19:26:46.603Z,101414.84
2022-12-12T19:29:18.796Z,101415.75
2022-12-12T19:31:52.665Z,101411.38
2022-12-12T19:34:27.283Z,101414.88
2022-12-12T19:36:56.172Z,101413.09
2022-12-12T19:45:09.820Z,101410.47
2022-12-12T19:47:41.438Z,101413.97
2022-12-12T19:50:11.286Z,101419.25
2022-12-12T19:52:41.005Z,101416.63
2022-12-12T19:55:11.546Z,101421.03
2022-12-12T19:57:42.173Z,101421.88
2022-12-12T20:00:13.028Z,101424.53
2022-12-12T20:02:41.842Z,101416.66
2022-12-12T20:05:17.278Z,101421.03
2022-12-12T20:07:45.711Z,101418.38
2022-12-12T20:10:16.501Z,101421.91
2022-12-12T20:12:56.092Z,101414.88
2022-12-12T20:15:27.360Z,101416.63
2022-12-12T20:18:00.944Z,101418.41
2022-12-12T20:20:30.572Z,101419.28
2022-12-12T20:22:59.544Z,101410.50
2022-12-12T20:25:29.672Z,101425.41
2022-12-12T20:28:04.915Z,101422.78
2022-12-12T20:30:35.834Z,101428.03
2022-12-12T20:33:04.857Z,101425.41
2022-12-12T20:35:36.880Z,101418.38
2022-12-12T20:38:06.582Z,101427.16
2022-12-12T20:40:41.720Z,101441.19
2022-12-12T20:43:12.518Z,101436.78
2022-12-12T20:45:41.742Z,101431.53
2022-12-12T20:48:12.829Z,101439.41
2022-12-12T20:50:41.920Z,101431.53
2022-12-12T20:53:12.708Z,101433.28
2022-12-12T20:55:42.895Z,101435.03
2022-12-12T20:58:13.011Z,101437.66
2022-12-12T21:00:42.293Z,101432.41
2022-12-12T21:03:17.978Z,101442.88
2022-12-12T21:05:46.601Z,101436.75
2022-12-12T21:08:17.632Z,101444.66
2022-12-12T21:10:48.353Z,101457.78
2022-12-12T21:13:20.766Z,101445.53
2022-12-12T21:15:49.960Z,101442.00
2022-12-12T21:18:19.326Z,101447.28
2022-12-12T21:20:51.397Z,101444.63
2022-12-12T21:23:24.992Z,101446.38
2022-12-12T21:25:55.520Z,101441.13
2022-12-12T21:28:24.985Z,101447.25
2022-12-12T21:30:53.742Z,101445.47
2022-12-12T21:33:22.348Z,101450.72
2022-12-12T21:35:51.316Z,101450.72
2022-12-12T21:38:26.307Z,101448.97
2022-12-12T21:40:56.636Z,101445.47
2022-12-12T21:43:25.687Z,101446.31
2022-12-12T21:45:55.753Z,101446.34
2022-12-12T21:48:24.678Z,101437.59
2022-12-12T21:50:55.237Z,101439.31
2022-12-12T21:53:36.139Z,101443.69
2022-12-12T21:56:15.291Z,101430.56
2022-12-12T21:58:46.882Z,101430.56
2022-12-12T22:01:18.951Z,101424.41
2022-12-12T22:03:49.747Z,101432.28
2022-12-12T22:06:21.010Z,101427.03
2022-12-12T22:08:50.300Z,101424.41
2022-12-12T22:11:40.413Z,101423.53
2022-12-12T22:14:13.856Z,101423.50
2022-12-12T22:16:42.606Z,101432.28
2022-12-12T22:19:14.393Z,101433.16
2022-12-12T22:21:46.452Z,101427.88
2022-12-12T22:24:15.700Z,101425.28
2022-12-12T22:26:48.780Z,101427.88
2022-12-12T22:29:22.083Z,101438.41
2022-12-12T22:31:52.573Z,101437.50
2022-12-12T22:34:28.067Z,101427.88
2022-12-12T22:36:57.248Z,101437.53
2022-12-12T22:39:28.165Z,101434.00
2022-12-12T22:42:00.076Z,101428.75
2022-12-12T22:44:29.715Z,101426.97
2022-12-12T22:46:58.658Z,101423.50
2022-12-12T22:49:29.733Z,101428.75
2022-12-12T22:51:59.168Z,101434.00
2022-12-12T22:54:29.491Z,101427.88
2022-12-12T22:57:00.098Z,101436.56
2022-12-12T22:59:29.690Z,101432.22
2022-12-12T23:01:58.958Z,101439.22
2022-12-12T23:04:27.764Z,101440.09
2022-12-12T23:06:56.426Z,101440.94
2022-12-12T23:09:26.367Z,101447.97
2022-12-12T23:11:55.826Z,101436.56
2022-12-12T23:14:27.483Z,101433.06
2022-12-12T23:16:58.519Z,101423.41
2022-12-12T23:19:30.336Z,101427.81
2022-12-12T23:22:00.800Z,101421.66
2022-12-12T23:24:29.380Z,101430.44
2022-12-12T23:26:58.504Z,101423.41
2022-12-12T23:29:29.987Z,101431.28
2022-12-12T23:32:02.991Z,101429.50
2022-12-12T23:34:34.745Z,101429.50
2022-12-12T23:37:03.215Z,101422.50
2022-12-12T23:39:31.660Z,101419.84
2022-12-12T23:42:01.141Z,101421.63
2022-12-12T23:44:31.938Z,101419.00
2022-12-12T23:47:01.760Z,101424.25
2022-12-12T23:49:30.396Z,101424.19
2022-12-12T23:52:03.367Z,101425.09
2022-12-12T23:54:35.691Z,101418.94
2022-12-12T23:57:04.902Z,101422.41
2022-12-12T23:59:36.338Z,101422.41
